Terminal Aerodrome Forecast
Issued by NWS Greer, SC

Home | Current Version | Previous Version | Text Only | Print | Product List | Glossary On
Versions: 1 2 3 4 5 6 7 8 9 10 11 12 13 14
000
FTUS42 KGSP 202321
TAFGSP
TAF
KGSP 202321Z 2100/2124 24006KT P6SM FEW250
     FM210800 34003KT P6SM FEW250
     FM211600 04004KT P6SM FEW250=

USA.gov is the U.S. government's official web portal to all federal, state and local government web resources and services.